Montkaj — ZCCB8 — position and weather

sailwx.info

Track history (hours):
 
Tides and Currents Weather Stations Pressure Air Temp Water Temp Dewpoint Dewpoint Depression Visibility Wind Speed Wind Dir Waves Ship Positions

Montkaj

Last reported at 2018-Aug-15 02:31 UTC. Time now 2018-Aug-15 03:01 UTC.
Position N 34°11' W 119°53'.

Length 78 m; draft 3.6 m.

Type: Pleasure craft. MMSI: 319904000.

Date/timePositionNaut miles runAvg speedWind from/ knotsBaromVisibWave heightAir tempDewpointWater temp
2018-Aug-15 02:31N 34°11' W 119°53'1212.2
2018-Aug-15 01:30N 34°14' W 120°07'1413.6
2018-Aug-15 00:30N 34°18' W 120°23'1912.7
2018-Aug-14 23:00N 34°23' W 120°45'1312.7
2018-Aug-14 22:00N 34°30' W 120°58'20 9.9
2018-Aug-14 20:00N 34°42' W 121°17'613.0
2018-Aug-14 19:30N 34°46' W 121°23'612.6
2018-Aug-14 19:00N 34°50' W 121°29'612.5
2018-Aug-14 18:30N 34°54' W 121°35'1312.9
2018-Aug-14 17:30N 35°03' W 121°47'713.1
2018-Aug-14 17:00N 35°07' W 121°53'814.8
2018-Aug-14 16:30N 35°12' W 121°60'1017.1
2018-Aug-14 15:54N 35°18' W 122°09'715.9
2018-Aug-14 15:28N 35°24' W 122°13'1014.7
2018-Aug-14 14:48N 35°33' W 122°19'414.5
2018-Aug-14 14:30N 35°37' W 122°22'714.4
2018-Aug-14 14:00N 35°43' W 122°26'714.2
2018-Aug-14 13:30N 35°49' W 122°30'714.1
2018-Aug-14 13:00N 35°55' W 122°35'714.2
2018-Aug-14 12:30N 36°02' W 122°39'814.4
2018-Aug-14 11:58N 36°08' W 122°43'714.6
2018-Aug-14 11:30N 36°14' W 122°47'713.9
2018-Aug-14 11:00N 36°20' W 122°51'714.1
2018-Aug-14 10:29N 36°27' W 122°56'714.0
2018-Aug-14 09:58N 36°33' W 123°00'2114.4
2018-Aug-14 08:31N 36°52' W 123°13'714.1
2018-Aug-14 08:00N 36°58' W 123°17'814.9
2018-Aug-14 07:30N 37°05' W 123°22'814.9
2018-Aug-14 06:59N 37°11' W 123°26'714.5
2018-Aug-14 06:30N 37°17' W 123°30'597511173.9
2018-Aug-14 05:58N 43°32' E 007°02'597012831.3
2018-Aug-14 05:30N 37°31' W 123°38'1514.6
2018-Aug-14 04:30N 37°44' W 123°46'814.9
2018-Aug-14 03:57N 37°51' W 123°50'714.8
2018-Aug-14 03:30N 37°57' W 123°54'2315.1
2018-Aug-14 02:00N 38°18' W 124°06'1116.0
2018-Aug-14 01:18N 38°28' W 124°12'515.8
2018-Aug-14 00:58N 38°33' W 124°15'815.9
2018-Aug-14 00:28N 38°40' W 124°19'594612351.1
2018-Aug-13 23:59N 43°32' E 007°02'0 0.0
2018-Aug-13 23:27N 43°32' E 007°02'0 0.0
2018-Aug-13 23:00N 43°32' E 007°02'0 0.0
2018-Aug-13 22:24N 43°32' E 007°02'0 0.0
2018-Aug-13 21:58N 43°32' E 007°02'0 0.0
2018-Aug-13 21:28N 43°32' E 007°02'0 0.0
2018-Aug-13 20:58N 43°32' E 007°02'0 0.0
2018-Aug-13 20:23N 43°32' E 007°02'0 0.0
2018-Aug-13 19:56N 43°32' E 007°02'0 0.0
2018-Aug-13 19:29N 43°32' E 007°02'0 0.0
2018-Aug-13 18:54N 43°32' E 007°02'0 0.0
2018-Aug-13 18:30N 43°32' E 007°02'0 0.0
2018-Aug-13 18:00N 43°32' E 007°02'0 0.0
2018-Aug-13 17:28N 43°32' E 007°02'0 0.0
2018-Aug-13 16:58N 43°32' E 007°02'0 0.0
2018-Aug-13 16:25N 43°32' E 007°02'0 0.0
2018-Aug-13 15:59N 43°32' E 007°02'0 0.0
2018-Aug-13 15:23N 43°32' E 007°02'0 0.0
2018-Aug-13 14:59N 43°32' E 007°02'0 0.0
2018-Aug-13 14:18N 43°32' E 007°02'0 0.0
2018-Aug-13 13:57N 43°32' E 007°02'0 0.0
2018-Aug-13 13:10N 43°32' E 007°02'0 0.0
2018-Aug-13 12:55N 43°32' E 007°02'0 0.0
2018-Aug-13 12:28N 43°32' E 007°02'0 0.0
2018-Aug-13 11:58N 43°32' E 007°02'0 0.0
2018-Aug-13 11:29N 43°32' E 007°02'0 0.0
2018-Aug-13 10:50N 43°32' E 007°02'0 0.0
2018-Aug-13 10:26N 43°32' E 007°02'0 0.0
2018-Aug-13 10:00N 43°32' E 007°02'0 0.0
2018-Aug-13 09:24N 43°32' E 007°02'0 0.0
2018-Aug-13 08:48N 43°32' E 007°02'0 0.0
2018-Aug-13 08:25N 43°32' E 007°02'0 0.0
2018-Aug-13 07:58N 43°32' E 007°02'0 0.0
2018-Aug-13 07:28N 43°32' E 007°02'0 0.0
2018-Aug-13 06:59N 43°32' E 007°02'0 0.0
2018-Aug-13 06:29N 43°32' E 007°02'0 0.0
2018-Aug-13 05:59N 43°32' E 007°02'576811878.3
2018-Aug-13 05:30N 43°19' W 125°20'576811458.8
2018-Aug-13 05:00N 43°32' E 007°02'0 0.0
2018-Aug-13 04:30N 43°32' E 007°02'0 0.0
2018-Aug-13 03:58N 43°32' E 007°02'0 0.0
2018-Aug-13 03:25N 43°32' E 007°02'0 0.0
2018-Aug-13 02:58N 43°32' E 007°02'0 0.0
2018-Aug-13 02:26N 43°32' E 007°02'0 0.0
2018-Aug-13 01:59N 43°32' E 007°02'0 0.0
2018-Aug-13 01:23N 43°32' E 007°02'0 0.0
2018-Aug-13 00:57N 43°32' E 007°02'56964346.9
2018-Aug-12 23:38N 44°50' W 125°21'615.2
2018-Aug-12 23:14N 44°56' W 125°21'1114.8
2018-Aug-12 22:30N 45°07' W 125°21'815.0
2018-Aug-12 21:58N 45°15' W 125°21'1514.8
2018-Aug-12 20:57N 45°30' W 125°21'2215.2
2018-Aug-12 19:30N 45°52' W 125°21'815.3
2018-Aug-12 18:58N 46°01' W 125°22'1515.3
2018-Aug-12 18:00N 46°15' W 125°21'815.6
2018-Aug-12 17:30N 46°23' W 125°21'1615.9
2018-Aug-12 16:30N 46°39' W 125°22'917.2
2018-Aug-12 16:00N 46°48' W 125°22'1515.2
2018-Aug-12 15:01N 47°03' W 125°22'815.4
2018-Aug-12 14:30N 47°11' W 125°22'1915.7
2018-Aug-12 13:17N 47°30' W 125°22'516.0
2018-Aug-12 13:00N 47°34' W 125°22'55688980.2
2018-Aug-12 12:23N 43°32' E 007°02'0 0.0
2018-Aug-12 11:59N 43°32' E 007°02'0 0.0
2018-Aug-12 11:15N 43°32' E 007°02'0 0.0
2018-Aug-12 10:57N 43°32' E 007°02'55266554.2
2018-Aug-12 10:07N 48°18' W 125°11'315.6
2018-Aug-12 09:57N 48°21' W 125°10'614.5
2018-Aug-12 09:31N 48°26' W 125°06'1313.2
2018-Aug-12 08:31N 48°31' W 124°47'3915.6
2018-Aug-12 06:00N 48°17' W 123°52'1615.1
2018-Aug-12 04:55N 48°19' W 123°27'2811.5
2018-Aug-12 02:30N 48°44' W 123°09'715.2
2018-Aug-12 02:00N 48°49' W 123°01'21 7.2
2018-Aug-11 23:00N 49°10' W 122°56'1 1.4
2018-Aug-11 22:28N 49°11' W 122°55'0 0.0
2018-Aug-11 20:13N 49°11' W 122°55'0 0.0
2018-Aug-11 19:55N 49°11' W 122°55'0 0.0
2018-Aug-11 19:28N 49°11' W 122°55'0 0.0
2018-Aug-11 18:58N 49°11' W 122°55'0 0.0
2018-Aug-11 18:28N 49°11' W 122°55'53917984.1
2018-Aug-11 17:48N 43°32' E 007°02'0 0.0
2018-Aug-11 17:30N 43°32' E 007°02'0 0.0
2018-Aug-11 17:00N 43°32' E 007°02'0 0.0
2018-Aug-11 16:30N 43°32' E 007°02'0 0.0
2018-Aug-11 15:58N 43°32' E 007°02'0 0.0
2018-Aug-11 15:22N 43°32' E 007°02'53919753.4
2018-Aug-11 14:49N 49°11' W 122°55'0 0.0
2018-Aug-11 14:30N 49°11' W 122°55'0 0.0
2018-Aug-11 13:30N 49°11' W 122°55'26 6.5
2018-Aug-11 09:30N 48°45' W 123°04'817.0
2018-Aug-11 09:00N 48°41' W 123°15'54271790.1
2018-Aug-11 05:59N 43°32' E 007°02'54717516.8
2018-Aug-11 05:15N 48°14' W 123°46'1013.3
2018-Aug-11 04:29N 48°15' W 124°01'713.5
2018-Aug-11 03:59N 48°18' W 124°11'714.2
2018-Aug-11 03:30N 48°21' W 124°20'2113.9
2018-Aug-11 02:00N 48°29' W 124°49'611.8
2018-Aug-11 01:30N 48°28' W 124°58'713.2
2018-Aug-11 01:00N 48°29' W 125°08'9012.7
2018-Aug-10 17:54N 48°29' W 127°24'2013.5
2018-Aug-10 16:25N 48°29' W 127°54'813.5
2018-Aug-10 15:50N 48°29' W 128°06'413.3
2018-Aug-10 15:30N 48°29' W 128°13'1213.6
2018-Aug-10 14:35N 48°29' W 128°32'566119980.3
2018-Aug-10 14:18N 43°32' E 007°08'515.3
2018-Aug-10 14:00N 43°30' E 007°02'3 5.2
2018-Aug-10 13:30N 43°32' E 007°02'0 0.0
2018-Aug-10 12:54N 43°32' E 007°02'0 0.0
2018-Aug-10 12:28N 43°32' E 007°02'0 0.0
2018-Aug-10 11:52N 43°32' E 007°02'0 0.0
2018-Aug-10 11:25N 43°32' E 007°02'0 0.0
2018-Aug-10 10:59N 43°32' E 007°02'0 0.0
2018-Aug-10 10:26N 43°32' E 007°02'0 0.0
2018-Aug-10 09:59N 43°32' E 007°02'0 0.0
2018-Aug-10 09:27N 43°32' E 007°02'0 0.0
2018-Aug-10 09:00N 43°32' E 007°02'0 0.0
2018-Aug-10 08:30N 43°32' E 007°02'0 0.0
2018-Aug-10 07:58N 43°32' E 007°02'0 0.0
2018-Aug-10 07:10N 43°32' E 007°02'0 0.0
2018-Aug-10 06:58N 43°32' E 007°02'0 0.0
2018-Aug-10 06:29N 43°32' E 007°02'0 0.0
2018-Aug-10 05:53N 43°32' E 007°02'0 0.0
2018-Aug-10 05:26N 43°32' E 007°02'0 0.0
2018-Aug-10 05:00N 43°32' E 007°02'0 0.0
2018-Aug-10 04:30N 43°32' E 007°02'0 0.0
2018-Aug-10 04:00N 43°32' E 007°02'0 0.0
2018-Aug-10 03:25N 43°32' E 007°02'0 0.0
2018-Aug-10 02:58N 43°32' E 007°02'0 0.0
2018-Aug-10 02:22N 43°32' E 007°02'0 0.0
2018-Aug-10 01:59N 43°32' E 007°02'0 0.0
2018-Aug-10 01:29N 43°32' E 007°02'0 0.0
2018-Aug-10 00:56N 43°32' E 007°02'0 0.0
2018-Aug-10 00:30N 43°32' E 007°02'0 0.0
2018-Aug-09 23:57N 43°32' E 007°02'0 0.0
2018-Aug-09 23:27N 43°32' E 007°02'0 0.0
2018-Aug-09 22:55N 43°32' E 007°02'0 0.0
2018-Aug-09 22:28N 43°32' E 007°02'0 0.0
2018-Aug-09 21:58N 43°32' E 007°02'0 0.0
2018-Aug-09 21:26N 43°32' E 007°02'0 0.0
2018-Aug-09 20:59N 43°32' E 007°02'0 0.0
2018-Aug-09 20:23N 43°32' E 007°02'0 0.0
2018-Aug-09 20:00N 43°32' E 007°02'0 0.0
2018-Aug-09 19:30N 43°32' E 007°02'0 0.0
2018-Aug-09 18:57N 43°32' E 007°02'0 0.0
2018-Aug-09 18:22N 43°32' E 007°02'0 0.0
2018-Aug-09 17:55N 43°32' E 007°02'0 0.0
2018-Aug-09 17:28N 43°32' E 007°02'0 0.0
2018-Aug-09 16:53N 43°32' E 007°02'0 0.0
2018-Aug-09 16:29N 43°32' E 007°02'0 0.0
2018-Aug-09 15:53N 43°32' E 007°02'0 0.0
2018-Aug-09 15:30N 43°32' E 007°02'0 0.0
2018-Aug-09 14:54N 43°32' E 007°02'0 0.0
2018-Aug-09 14:27N 43°32' E 007°02'0 0.0
2018-Aug-09 13:58N 43°32' E 007°02'0 0.0
2018-Aug-09 13:28N 43°32' E 007°02'0 0.0
2018-Aug-09 12:58N 43°32' E 007°02'0 0.0
2018-Aug-09 12:29N 43°32' E 007°02'0 0.0
2018-Aug-09 11:59N 43°32' E 007°02'0 0.0
2018-Aug-09 11:29N 43°32' E 007°02'0 0.0
2018-Aug-09 10:54N 43°32' E 007°02'0 0.0
2018-Aug-09 10:30N 43°32' E 007°02'0 0.0
2018-Aug-09 09:57N 43°32' E 007°02'0 0.0
2018-Aug-09 09:28N 43°32' E 007°02'0 0.0
2018-Aug-09 08:58N 43°32' E 007°02'0 0.0
2018-Aug-09 08:28N 43°32' E 007°02'0 0.0
2018-Aug-09 07:59N 43°32' E 007°02'0 0.0
2018-Aug-09 07:29N 43°32' E 007°02'0 0.0
2018-Aug-09 06:59N 43°32' E 007°02'0 0.0
2018-Aug-09 06:24N 43°32' E 007°02'0 0.0
2018-Aug-09 06:00N 43°32' E 007°02'0 0.0
2018-Aug-09 05:30N 43°32' E 007°02'0 0.0
2018-Aug-09 04:58N 43°32' E 007°02'0 0.0
2018-Aug-09 04:28N 43°32' E 007°02'0 0.0
2018-Aug-09 03:58N 43°32' E 007°02'0 0.0
2018-Aug-09 03:29N 43°32' E 007°02'0 0.0
2018-Aug-09 02:53N 43°32' E 007°02'0 0.0
2018-Aug-09 02:29N 43°32' E 007°02'0 0.0
2018-Aug-09 02:00N 43°32' E 007°02'0 0.0
2018-Aug-09 01:27N 43°32' E 007°02'0 0.0
2018-Aug-09 00:58N 43°32' E 007°02'0 0.0
2018-Aug-09 00:25N 43°32' E 007°02'0 0.0
2018-Aug-08 23:58N 43°32' E 007°02'0 0.0
2018-Aug-08 23:26N 43°32' E 007°02'0 0.0
2018-Aug-08 22:59N 43°32' E 007°02'0 0.0
2018-Aug-08 22:29N 43°32' E 007°02'0 0.0
2018-Aug-08 22:00N 43°32' E 007°02'0 0.0
2018-Aug-08 21:30N 43°32' E 007°02'0 0.0
2018-Aug-08 21:00N 43°32' E 007°02'0 0.0
2018-Aug-08 20:28N 43°32' E 007°02'0 0.0
2018-Aug-08 19:58N 43°32' E 007°02'0 0.0
2018-Aug-08 19:28N 43°32' E 007°02'0 0.0
2018-Aug-08 18:59N 43°32' E 007°02'0 0.0
2018-Aug-08 18:26N 43°32' E 007°02'0 0.0
2018-Aug-08 17:59N 43°32' E 007°02'0 0.0
2018-Aug-08 17:27N 43°32' E 007°02'0 0.0
2018-Aug-08 16:48N 43°32' E 007°02'0 0.0
2018-Aug-08 16:24N 43°32' E 007°02'0 0.0
2018-Aug-08 15:55N 43°32' E 007°02'0 0.0
2018-Aug-08 15:28N 43°32' E 007°02'0 0.0
2018-Aug-08 14:58N 43°32' E 007°02'0 0.0
2018-Aug-08 14:29N 43°32' E 007°02'0 0.0
2018-Aug-08 13:50N 43°32' E 007°02'0 0.0
2018-Aug-08 13:29N 43°32' E 007°02'0 0.0
2018-Aug-08 12:57N 43°32' E 007°02'0 0.0
2018-Aug-08 12:27N 43°32' E 007°02'0 0.0
2018-Aug-08 12:00N 43°32' E 007°02'0 0.0
2018-Aug-08 11:25N 43°32' E 007°02'0 0.0
2018-Aug-08 10:58N 43°32' E 007°02'0 0.0
2018-Aug-08 10:28N 43°32' E 007°02'0 0.0
2018-Aug-08 09:59N 43°32' E 007°02'0 0.0
2018-Aug-08 09:23N 43°32' E 007°02'0 0.0
2018-Aug-08 08:59N 43°32' E 007°02'0 0.0
2018-Aug-08 08:30N 43°32' E 007°02'0 0.0
2018-Aug-08 07:57N 43°32' E 007°02'0 0.0
2018-Aug-08 07:30N 43°32' E 007°02'0 0.0
2018-Aug-08 06:58N 43°32' E 007°02'0 0.0
2018-Aug-08 06:28N 43°32' E 007°02'0 0.0
2018-Aug-08 05:58N 43°32' E 007°02'0 0.0
2018-Aug-08 05:26N 43°32' E 007°02'0 0.0
2018-Aug-08 04:59N 43°32' E 007°02'0 0.0
2018-Aug-08 04:26N 43°32' E 007°02'0 0.0
2018-Aug-08 04:00N 43°32' E 007°02'0 0.0
2018-Aug-08 03:30N 43°32' E 007°02'0 0.0
2018-Aug-08 03:00N 43°32' E 007°02'0 0.0
2018-Aug-08 02:25N 43°32' E 007°02'0 0.0
2018-Aug-08 01:58N 43°32' E 007°02'0 0.0
2018-Aug-08 01:28N 43°32' E 007°02'0 0.0
2018-Aug-08 00:59N 43°32' E 007°02'2 4.4
2018-Aug-08 00:30N 43°30' E 007°01'914.5
2018-Aug-07 23:54N 43°34' E 007°12'14 9.6
2018-Aug-07 22:28N 43°44' E 007°25'0 0.0
2018-Aug-07 21:52N 43°44' E 007°25'0 0.0
2018-Aug-07 21:28N 43°44' E 007°25'0 0.0
2018-Aug-07 20:59N 43°44' E 007°25'0 0.0
2018-Aug-07 20:29N 43°44' E 007°25'0 0.0
2018-Aug-07 19:42N 43°44' E 007°25'0 0.0
2018-Aug-07 18:13N 43°44' E 007°25'0 0.0
2018-Aug-07 17:55N 43°44' E 007°25'10 3.1
2018-Aug-07 14:36N 43°36' E 007°16'216.2
2018-Aug-07 14:29N 43°35' E 007°14'815.8
2018-Aug-07 14:00N 43°31' E 007°06'3 6.3
2018-Aug-07 13:29N 43°32' E 007°02'0 0.0
2018-Aug-07 12:58N 43°32' E 007°02'0 0.0
2018-Aug-07 12:25N 43°32' E 007°02'0 0.0
2018-Aug-07 11:59N 43°32' E 007°02'0 0.0
2018-Aug-07 11:29N 43°32' E 007°02'0 0.0
2018-Aug-07 10:59N 43°32' E 007°02'0 0.0
2018-Aug-07 10:29N 43°32' E 007°02'0 0.0
2018-Aug-07 10:00N 43°32' E 007°02'0 0.0
2018-Aug-07 09:30N 43°32' E 007°02'0 0.0
2018-Aug-07 09:00N 43°32' E 007°02'0 0.0
2018-Aug-07 08:28N 43°32' E 007°02'0 0.0
2018-Aug-07 07:55N 43°32' E 007°02'0 0.0
2018-Aug-07 07:29N 43°32' E 007°02'0 0.0
2018-Aug-07 06:59N 43°32' E 007°02'0 0.0
2018-Aug-07 06:26N 43°32' E 007°02'0 0.0
2018-Aug-07 06:00N 43°32' E 007°02'0 0.0
2018-Aug-07 05:24N 43°32' E 007°02'0 0.0
2018-Aug-07 05:00N 43°32' E 007°02'0 0.0
2018-Aug-07 04:30N 43°32' E 007°02'0 0.0
2018-Aug-07 03:58N 43°32' E 007°02'0 0.0
2018-Aug-07 03:28N 43°32' E 007°02'0 0.0
2018-Aug-07 02:56N 43°32' E 007°02'0 0.0
2018-Aug-07 02:29N 43°32' E 007°02'0 0.0
2018-Aug-07 01:59N 43°32' E 007°02'0 0.0
2018-Aug-07 01:30N 43°32' E 007°02'0 0.0
2018-Aug-07 01:00N 43°32' E 007°02'0 0.0
2018-Aug-07 00:24N 43°32' E 007°02'0 0.0
2018-Aug-07 00:01N 43°32' E 007°02'0 0.0
2018-Aug-06 23:25N 43°32' E 007°02'0 0.0
2018-Aug-06 22:58N 43°32' E 007°02'0 0.0
2018-Aug-06 22:23N 43°32' E 007°02'0 0.0
2018-Aug-06 21:59N 43°32' E 007°02'0 0.0
2018-Aug-06 21:26N 43°32' E 007°02'0 0.0
2018-Aug-06 21:00N 43°32' E 007°02'0 0.0
2018-Aug-06 20:30N 43°32' E 007°02'0 0.0
2018-Aug-06 20:00N 43°32' E 007°02'0 0.0
2018-Aug-06 19:31N 43°32' E 007°02'0 0.0
2018-Aug-06 18:52N 43°32' E 007°02'0 0.0
2018-Aug-06 18:28N 43°32' E 007°02'0 0.0
2018-Aug-06 17:53N 43°32' E 007°02'0 0.0
2018-Aug-06 17:26N 43°32' E 007°02'0 0.0
2018-Aug-06 16:59N 43°32' E 007°02'0 0.0
2018-Aug-06 16:30N 43°32' E 007°02'0 0.0
2018-Aug-06 16:00N 43°32' E 007°02'0 0.0
2018-Aug-06 15:24N 43°32' E 007°02'0 0.0
2018-Aug-06 14:58N 43°32' E 007°02'0 0.0
2018-Aug-06 14:22N 43°32' E 007°02'0 0.0
2018-Aug-06 13:58N 43°32' E 007°02'0 0.0
2018-Aug-06 13:29N 43°32' E 007°02'0 0.0
2018-Aug-06 12:59N 43°32' E 007°02'0 0.0
2018-Aug-06 12:29N 43°32' E 007°02'0 0.0
2018-Aug-06 12:00N 43°32' E 007°02'0 0.0
2018-Aug-06 11:30N 43°32' E 007°02'0 0.0
2018-Aug-06 11:00N 43°32' E 007°02'0 0.0
2018-Aug-06 10:28N 43°32' E 007°02'0 0.0
2018-Aug-06 09:55N 43°32' E 007°02'0 0.0
2018-Aug-06 09:25N 43°32' E 007°02'0 0.0
2018-Aug-06 08:59N 43°32' E 007°02'0 0.0
2018-Aug-06 08:29N 43°32' E 007°02'0 0.0
2018-Aug-06 07:59N 43°32' E 007°02'0 0.0
2018-Aug-06 07:30N 43°32' E 007°02'0 0.0
2018-Aug-06 06:57N 43°32' E 007°02'0 0.0
2018-Aug-06 06:30N 43°32' E 007°02'0 0.0
2018-Aug-06 05:55N 43°32' E 007°02'0 0.0
2018-Aug-06 05:28N 43°32' E 007°02'0 0.0
2018-Aug-06 04:52N 43°32' E 007°02'0 0.0
2018-Aug-06 04:26N 43°32' E 007°02'0 0.0
2018-Aug-06 03:53N 43°32' E 007°02'0 0.0
2018-Aug-06 03:29N 43°32' E 007°02'0 0.0
2018-Aug-06 03:00N 43°32' E 007°02'0 0.0
2018-Aug-06 02:30N 43°32' E 007°02'0 0.0
2018-Aug-06 02:00N 43°32' E 007°02'0 0.0
2018-Aug-06 01:22N 43°32' E 007°02'0 0.0
2018-Aug-06 00:58N 43°32' E 007°02'0 0.0
2018-Aug-06 00:28N 43°32' E 007°02'0 0.0
2018-Aug-05 23:59N 43°32' E 007°02'0 0.0
2018-Aug-05 23:29N 43°32' E 007°02'0 0.0
2018-Aug-05 22:53N 43°32' E 007°02'0 0.0
2018-Aug-05 22:30N 43°32' E 007°02'0 0.0
2018-Aug-05 21:54N 43°32' E 007°02'0 0.0
2018-Aug-05 21:30N 43°32' E 007°02'0 0.0
2018-Aug-05 20:58N 43°32' E 007°02'0 0.0
2018-Aug-05 20:25N 43°32' E 007°02'0 0.0
2018-Aug-05 19:58N 43°32' E 007°02'0 0.0
2018-Aug-05 19:23N 43°32' E 007°02'0 0.0
2018-Aug-05 18:59N 43°32' E 007°02'0 0.0
2018-Aug-05 18:23N 43°32' E 007°02'0 0.0
2018-Aug-05 17:57N 43°32' E 007°02'0 0.0
2018-Aug-05 17:30N 43°32' E 007°02'0 0.0
2018-Aug-05 16:57N 43°32' E 007°02'0 0.0
2018-Aug-05 16:19N 43°32' E 007°02'0 0.0
2018-Aug-05 15:55N 43°32' E 007°02'0 0.0
2018-Aug-05 15:28N 43°32' E 007°02'0 0.0
2018-Aug-05 14:59N 43°32' E 007°02'0 0.0
2018-Aug-05 13:59N 43°32' E 007°02'0 0.0
2018-Aug-05 13:27N 43°32' E 007°02'0 0.0
2018-Aug-05 13:00N 43°32' E 007°02'0 0.0
2018-Aug-05 12:30N 43°32' E 007°02'0 0.0
2018-Aug-05 11:58N 43°32' E 007°02'0 0.0
2018-Aug-05 11:19N 43°32' E 007°02'0 0.0
2018-Aug-05 10:58N 43°32' E 007°02'0 0.0
2018-Aug-05 10:29N 43°32' E 007°02'0 0.0
2018-Aug-05 09:59N 43°32' E 007°02'0 0.0
2018-Aug-05 09:29N 43°32' E 007°02'0 0.0
2018-Aug-05 09:00N 43°32' E 007°02'0 0.0
2018-Aug-05 08:30N 43°32' E 007°02'0 0.0
2018-Aug-05 07:54N 43°32' E 007°02'0 0.0
2018-Aug-05 07:25N 43°32' E 007°02'0 0.0
2018-Aug-05 06:58N 43°32' E 007°02'0 0.0
2018-Aug-05 06:22N 43°32' E 007°02'0 0.0
2018-Aug-05 05:59N 43°32' E 007°02'0 0.0
2018-Aug-05 05:29N 43°32' E 007°02'0 0.0
2018-Aug-05 04:59N 43°32' E 007°02'0 0.0
2018-Aug-05 04:30N 43°32' E 007°02'0 0.0
2018-Aug-05 03:57N 43°32' E 007°02'0 0.0
2018-Aug-05 03:30N 43°32' E 007°02'0 0.0
2018-Aug-05 02:55N 43°32' E 007°02'  
Track history (hours):
 
Tides and Currents Weather Stations Pressure Air Temp Water Temp Dewpoint Dewpoint Depression Visibility Wind Speed Wind Dir Waves Ship Positions

Montkaj

Last reported at 2018-Aug-15 02:31 UTC. Time now 2018-Aug-15 03:01 UTC.
Position N 34°11' W 119°53'.

Length 78 m; draft 3.6 m.

Type: Pleasure craft. MMSI: 319904000.

Date/timePositionNaut miles runAvg speedWind from/ knotsBaromVisibWave heightAir tempDewpointWater temp
2018-Aug-15 02:31N 34°11' W 119°53'1212.2
2018-Aug-15 01:30N 34°14' W 120°07'1413.6
2018-Aug-15 00:30N 34°18' W 120°23'1912.7
2018-Aug-14 23:00N 34°23' W 120°45'1312.7
2018-Aug-14 22:00N 34°30' W 120°58'20 9.9
2018-Aug-14 20:00N 34°42' W 121°17'613.0
2018-Aug-14 19:30N 34°46' W 121°23'612.6
2018-Aug-14 19:00N 34°50' W 121°29'612.5
2018-Aug-14 18:30N 34°54' W 121°35'1312.9
2018-Aug-14 17:30N 35°03' W 121°47'713.1
2018-Aug-14 17:00N 35°07' W 121°53'814.8
2018-Aug-14 16:30N 35°12' W 121°60'1017.1
2018-Aug-14 15:54N 35°18' W 122°09'715.9
2018-Aug-14 15:28N 35°24' W 122°13'1014.7
2018-Aug-14 14:48N 35°33' W 122°19'414.5
2018-Aug-14 14:30N 35°37' W 122°22'714.4
2018-Aug-14 14:00N 35°43' W 122°26'714.2
2018-Aug-14 13:30N 35°49' W 122°30'714.1
2018-Aug-14 13:00N 35°55' W 122°35'714.2
2018-Aug-14 12:30N 36°02' W 122°39'814.4
2018-Aug-14 11:58N 36°08' W 122°43'714.6
2018-Aug-14 11:30N 36°14' W 122°47'713.9
2018-Aug-14 11:00N 36°20' W 122°51'714.1
2018-Aug-14 10:29N 36°27' W 122°56'714.0
2018-Aug-14 09:58N 36°33' W 123°00'2114.4
2018-Aug-14 08:31N 36°52' W 123°13'714.1
2018-Aug-14 08:00N 36°58' W 123°17'814.9
2018-Aug-14 07:30N 37°05' W 123°22'814.9
2018-Aug-14 06:59N 37°11' W 123°26'714.5
2018-Aug-14 06:30N 37°17' W 123°30'597511173.9
2018-Aug-14 05:58N 43°32' E 007°02'597012831.3
2018-Aug-14 05:30N 37°31' W 123°38'1514.6
2018-Aug-14 04:30N 37°44' W 123°46'814.9
2018-Aug-14 03:57N 37°51' W 123°50'714.8
2018-Aug-14 03:30N 37°57' W 123°54'2315.1
2018-Aug-14 02:00N 38°18' W 124°06'1116.0
2018-Aug-14 01:18N 38°28' W 124°12'515.8
2018-Aug-14 00:58N 38°33' W 124°15'815.9
2018-Aug-14 00:28N 38°40' W 124°19'594612351.1
2018-Aug-13 23:59N 43°32' E 007°02'0 0.0
2018-Aug-13 23:27N 43°32' E 007°02'0 0.0
2018-Aug-13 23:00N 43°32' E 007°02'0 0.0
2018-Aug-13 22:24N 43°32' E 007°02'0 0.0
2018-Aug-13 21:58N 43°32' E 007°02'0 0.0
2018-Aug-13 21:28N 43°32' E 007°02'0 0.0
2018-Aug-13 20:58N 43°32' E 007°02'0 0.0
2018-Aug-13 20:23N 43°32' E 007°02'0 0.0
2018-Aug-13 19:56N 43°32' E 007°02'0 0.0
2018-Aug-13 19:29N 43°32' E 007°02'0 0.0
2018-Aug-13 18:54N 43°32' E 007°02'0 0.0
2018-Aug-13 18:30N 43°32' E 007°02'0 0.0
2018-Aug-13 18:00N 43°32' E 007°02'0 0.0
2018-Aug-13 17:28N 43°32' E 007°02'0 0.0
2018-Aug-13 16:58N 43°32' E 007°02'0 0.0
2018-Aug-13 16:25N 43°32' E 007°02'0 0.0
2018-Aug-13 15:59N 43°32' E 007°02'0 0.0
2018-Aug-13 15:23N 43°32' E 007°02'0 0.0
2018-Aug-13 14:59N 43°32' E 007°02'0 0.0
2018-Aug-13 14:18N 43°32' E 007°02'0 0.0
2018-Aug-13 13:57N 43°32' E 007°02'0 0.0
2018-Aug-13 13:10N 43°32' E 007°02'0 0.0
2018-Aug-13 12:55N 43°32' E 007°02'0 0.0
2018-Aug-13 12:28N 43°32' E 007°02'0 0.0
2018-Aug-13 11:58N 43°32' E 007°02'0 0.0
2018-Aug-13 11:29N 43°32' E 007°02'0 0.0
2018-Aug-13 10:50N 43°32' E 007°02'0 0.0
2018-Aug-13 10:26N 43°32' E 007°02'0 0.0
2018-Aug-13 10:00N 43°32' E 007°02'0 0.0
2018-Aug-13 09:24N 43°32' E 007°02'0 0.0
2018-Aug-13 08:48N 43°32' E 007°02'0 0.0
2018-Aug-13 08:25N 43°32' E 007°02'0 0.0
2018-Aug-13 07:58N 43°32' E 007°02'0 0.0
2018-Aug-13 07:28N 43°32' E 007°02'0 0.0
2018-Aug-13 06:59N 43°32' E 007°02'0 0.0
2018-Aug-13 06:29N 43°32' E 007°02'0 0.0
2018-Aug-13 05:59N 43°32' E 007°02'576811878.3
2018-Aug-13 05:30N 43°19' W 125°20'576811458.8
2018-Aug-13 05:00N 43°32' E 007°02'0 0.0
2018-Aug-13 04:30N 43°32' E 007°02'0 0.0
2018-Aug-13 03:58N 43°32' E 007°02'0 0.0
2018-Aug-13 03:25N 43°32' E 007°02'0 0.0
2018-Aug-13 02:58N 43°32' E 007°02'0 0.0
2018-Aug-13 02:26N 43°32' E 007°02'0 0.0
2018-Aug-13 01:59N 43°32' E 007°02'0 0.0
2018-Aug-13 01:23N 43°32' E 007°02'0 0.0
2018-Aug-13 00:57N 43°32' E 007°02'56964346.9
2018-Aug-12 23:38N 44°50' W 125°21'615.2
2018-Aug-12 23:14N 44°56' W 125°21'1114.8
2018-Aug-12 22:30N 45°07' W 125°21'815.0
2018-Aug-12 21:58N 45°15' W 125°21'1514.8
2018-Aug-12 20:57N 45°30' W 125°21'2215.2
2018-Aug-12 19:30N 45°52' W 125°21'815.3
2018-Aug-12 18:58N 46°01' W 125°22'1515.3
2018-Aug-12 18:00N 46°15' W 125°21'815.6
2018-Aug-12 17:30N 46°23' W 125°21'1615.9
2018-Aug-12 16:30N 46°39' W 125°22'917.2
2018-Aug-12 16:00N 46°48' W 125°22'1515.2
2018-Aug-12 15:01N 47°03' W 125°22'815.4
2018-Aug-12 14:30N 47°11' W 125°22'1915.7
2018-Aug-12 13:17N 47°30' W 125°22'516.0
2018-Aug-12 13:00N 47°34' W 125°22'55688980.2
2018-Aug-12 12:23N 43°32' E 007°02'0 0.0
2018-Aug-12 11:59N 43°32' E 007°02'0 0.0
2018-Aug-12 11:15N 43°32' E 007°02'0 0.0
2018-Aug-12 10:57N 43°32' E 007°02'55266554.2
2018-Aug-12 10:07N 48°18' W 125°11'315.6
2018-Aug-12 09:57N 48°21' W 125°10'614.5
2018-Aug-12 09:31N 48°26' W 125°06'1313.2
2018-Aug-12 08:31N 48°31' W 124°47'3915.6
2018-Aug-12 06:00N 48°17' W 123°52'1615.1
2018-Aug-12 04:55N 48°19' W 123°27'2811.5
2018-Aug-12 02:30N 48°44' W 123°09'715.2
2018-Aug-12 02:00N 48°49' W 123°01'21 7.2
2018-Aug-11 23:00N 49°10' W 122°56'1 1.4
2018-Aug-11 22:28N 49°11' W 122°55'0 0.0
2018-Aug-11 20:13N 49°11' W 122°55'0 0.0
2018-Aug-11 19:55N 49°11' W 122°55'0 0.0
2018-Aug-11 19:28N 49°11' W 122°55'0 0.0
2018-Aug-11 18:58N 49°11' W 122°55'0 0.0
2018-Aug-11 18:28N 49°11' W 122°55'53917984.1
2018-Aug-11 17:48N 43°32' E 007°02'0 0.0
2018-Aug-11 17:30N 43°32' E 007°02'0 0.0
2018-Aug-11 17:00N 43°32' E 007°02'0 0.0
2018-Aug-11 16:30N 43°32' E 007°02'0 0.0
2018-Aug-11 15:58N 43°32' E 007°02'0 0.0
2018-Aug-11 15:22N 43°32' E 007°02'53919753.4
2018-Aug-11 14:49N 49°11' W 122°55'0 0.0
2018-Aug-11 14:30N 49°11' W 122°55'0 0.0
2018-Aug-11 13:30N 49°11' W 122°55'26 6.5
2018-Aug-11 09:30N 48°45' W 123°04'817.0
2018-Aug-11 09:00N 48°41' W 123°15'54271790.1
2018-Aug-11 05:59N 43°32' E 007°02'54717516.8
2018-Aug-11 05:15N 48°14' W 123°46'1013.3
2018-Aug-11 04:29N 48°15' W 124°01'713.5
2018-Aug-11 03:59N 48°18' W 124°11'714.2
2018-Aug-11 03:30N 48°21' W 124°20'2113.9
2018-Aug-11 02:00N 48°29' W 124°49'611.8
2018-Aug-11 01:30N 48°28' W 124°58'713.2
2018-Aug-11 01:00N 48°29' W 125°08'9012.7
2018-Aug-10 17:54N 48°29' W 127°24'2013.5
2018-Aug-10 16:25N 48°29' W 127°54'813.5
2018-Aug-10 15:50N 48°29' W 128°06'413.3
2018-Aug-10 15:30N 48°29' W 128°13'1213.6
2018-Aug-10 14:35N 48°29' W 128°32'566119980.3
2018-Aug-10 14:18N 43°32' E 007°08'515.3
2018-Aug-10 14:00N 43°30' E 007°02'3 5.2
2018-Aug-10 13:30N 43°32' E 007°02'0 0.0
2018-Aug-10 12:54N 43°32' E 007°02'0 0.0
2018-Aug-10 12:28N 43°32' E 007°02'0 0.0
2018-Aug-10 11:52N 43°32' E 007°02'0 0.0
2018-Aug-10 11:25N 43°32' E 007°02'0 0.0
2018-Aug-10 10:59N 43°32' E 007°02'0 0.0
2018-Aug-10 10:26N 43°32' E 007°02'0 0.0
2018-Aug-10 09:59N 43°32' E 007°02'0 0.0
2018-Aug-10 09:27N 43°32' E 007°02'0 0.0
2018-Aug-10 09:00N 43°32' E 007°02'0 0.0
2018-Aug-10 08:30N 43°32' E 007°02'0 0.0
2018-Aug-10 07:58N 43°32' E 007°02'0 0.0
2018-Aug-10 07:10N 43°32' E 007°02'0 0.0
2018-Aug-10 06:58N 43°32' E 007°02'0 0.0
2018-Aug-10 06:29N 43°32' E 007°02'0 0.0
2018-Aug-10 05:53N 43°32' E 007°02'0 0.0
2018-Aug-10 05:26N 43°32' E 007°02'0 0.0
2018-Aug-10 05:00N 43°32' E 007°02'0 0.0
2018-Aug-10 04:30N 43°32' E 007°02'0 0.0
2018-Aug-10 04:00N 43°32' E 007°02'0 0.0
2018-Aug-10 03:25N 43°32' E 007°02'0 0.0
2018-Aug-10 02:58N 43°32' E 007°02'0 0.0
2018-Aug-10 02:22N 43°32' E 007°02'0 0.0
2018-Aug-10 01:59N 43°32' E 007°02'0 0.0
2018-Aug-10 01:29N 43°32' E 007°02'0 0.0
2018-Aug-10 00:56N 43°32' E 007°02'0 0.0
2018-Aug-10 00:30N 43°32' E 007°02'0 0.0
2018-Aug-09 23:57N 43°32' E 007°02'0 0.0
2018-Aug-09 23:27N 43°32' E 007°02'0 0.0
2018-Aug-09 22:55N 43°32' E 007°02'0 0.0
2018-Aug-09 22:28N 43°32' E 007°02'0 0.0
2018-Aug-09 21:58N 43°32' E 007°02'0 0.0
2018-Aug-09 21:26N 43°32' E 007°02'0 0.0
2018-Aug-09 20:59N 43°32' E 007°02'0 0.0
2018-Aug-09 20:23N 43°32' E 007°02'0 0.0
2018-Aug-09 20:00N 43°32' E 007°02'0 0.0
2018-Aug-09 19:30N 43°32' E 007°02'0 0.0
2018-Aug-09 18:57N 43°32' E 007°02'0 0.0
2018-Aug-09 18:22N 43°32' E 007°02'0 0.0
2018-Aug-09 17:55N 43°32' E 007°02'0 0.0
2018-Aug-09 17:28N 43°32' E 007°02'0 0.0
2018-Aug-09 16:53N 43°32' E 007°02'0 0.0
2018-Aug-09 16:29N 43°32' E 007°02'0 0.0
2018-Aug-09 15:53N 43°32' E 007°02'0 0.0
2018-Aug-09 15:30N 43°32' E 007°02'0 0.0
2018-Aug-09 14:54N 43°32' E 007°02'0 0.0
2018-Aug-09 14:27N 43°32' E 007°02'0 0.0
2018-Aug-09 13:58N 43°32' E 007°02'0 0.0
2018-Aug-09 13:28N 43°32' E 007°02'0 0.0
2018-Aug-09 12:58N 43°32' E 007°02'0 0.0
2018-Aug-09 12:29N 43°32' E 007°02'0 0.0
2018-Aug-09 11:59N 43°32' E 007°02'0 0.0
2018-Aug-09 11:29N 43°32' E 007°02'0 0.0
2018-Aug-09 10:54N 43°32' E 007°02'0 0.0
2018-Aug-09 10:30N 43°32' E 007°02'0 0.0
2018-Aug-09 09:57N 43°32' E 007°02'0 0.0
2018-Aug-09 09:28N 43°32' E 007°02'0 0.0
2018-Aug-09 08:58N 43°32' E 007°02'0 0.0
2018-Aug-09 08:28N 43°32' E 007°02'0 0.0
2018-Aug-09 07:59N 43°32' E 007°02'0 0.0
2018-Aug-09 07:29N 43°32' E 007°02'0 0.0
2018-Aug-09 06:59N 43°32' E 007°02'0 0.0
2018-Aug-09 06:24N 43°32' E 007°02'0 0.0
2018-Aug-09 06:00N 43°32' E 007°02'0 0.0
2018-Aug-09 05:30N 43°32' E 007°02'0 0.0
2018-Aug-09 04:58N 43°32' E 007°02'0 0.0
2018-Aug-09 04:28N 43°32' E 007°02'0 0.0
2018-Aug-09 03:58N 43°32' E 007°02'0 0.0
2018-Aug-09 03:29N 43°32' E 007°02'0 0.0
2018-Aug-09 02:53N 43°32' E 007°02'0 0.0
2018-Aug-09 02:29N 43°32' E 007°02'0 0.0
2018-Aug-09 02:00N 43°32' E 007°02'0 0.0
2018-Aug-09 01:27N 43°32' E 007°02'0 0.0
2018-Aug-09 00:58N 43°32' E 007°02'0 0.0
2018-Aug-09 00:25N 43°32' E 007°02'0 0.0
2018-Aug-08 23:58N 43°32' E 007°02'0 0.0
2018-Aug-08 23:26N 43°32' E 007°02'0 0.0
2018-Aug-08 22:59N 43°32' E 007°02'0 0.0
2018-Aug-08 22:29N 43°32' E 007°02'0 0.0
2018-Aug-08 22:00N 43°32' E 007°02'0 0.0
2018-Aug-08 21:30N 43°32' E 007°02'0 0.0
2018-Aug-08 21:00N 43°32' E 007°02'0 0.0
2018-Aug-08 20:28N 43°32' E 007°02'0 0.0
2018-Aug-08 19:58N 43°32' E 007°02'0 0.0
2018-Aug-08 19:28N 43°32' E 007°02'0 0.0
2018-Aug-08 18:59N 43°32' E 007°02'0 0.0
2018-Aug-08 18:26N 43°32' E 007°02'0 0.0
2018-Aug-08 17:59N 43°32' E 007°02'0 0.0
2018-Aug-08 17:27N 43°32' E 007°02'0 0.0
2018-Aug-08 16:48N 43°32' E 007°02'0 0.0
2018-Aug-08 16:24N 43°32' E 007°02'0 0.0
2018-Aug-08 15:55N 43°32' E 007°02'0 0.0
2018-Aug-08 15:28N 43°32' E 007°02'0 0.0
2018-Aug-08 14:58N 43°32' E 007°02'0 0.0
2018-Aug-08 14:29N 43°32' E 007°02'0 0.0
2018-Aug-08 13:50N 43°32' E 007°02'0 0.0
2018-Aug-08 13:29N 43°32' E 007°02'0 0.0
2018-Aug-08 12:57N 43°32' E 007°02'0 0.0
2018-Aug-08 12:27N 43°32' E 007°02'0 0.0
2018-Aug-08 12:00N 43°32' E 007°02'0 0.0
2018-Aug-08 11:25N 43°32' E 007°02'0 0.0
2018-Aug-08 10:58N 43°32' E 007°02'0 0.0
2018-Aug-08 10:28N 43°32' E 007°02'0 0.0
2018-Aug-08 09:59N 43°32' E 007°02'0 0.0
2018-Aug-08 09:23N 43°32' E 007°02'0 0.0
2018-Aug-08 08:59N 43°32' E 007°02'0 0.0
2018-Aug-08 08:30N 43°32' E 007°02'0 0.0
2018-Aug-08 07:57N 43°32' E 007°02'0 0.0
2018-Aug-08 07:30N 43°32' E 007°02'0 0.0
2018-Aug-08 06:58N 43°32' E 007°02'0 0.0
2018-Aug-08 06:28N 43°32' E 007°02'0 0.0
2018-Aug-08 05:58N 43°32' E 007°02'0 0.0
2018-Aug-08 05:26N 43°32' E 007°02'0 0.0
2018-Aug-08 04:59N 43°32' E 007°02'0 0.0
2018-Aug-08 04:26N 43°32' E 007°02'0 0.0
2018-Aug-08 04:00N 43°32' E 007°02'0 0.0
2018-Aug-08 03:30N 43°32' E 007°02'0 0.0
2018-Aug-08 03:00N 43°32' E 007°02'0 0.0
2018-Aug-08 02:25N 43°32' E 007°02'0 0.0
2018-Aug-08 01:58N 43°32' E 007°02'0 0.0
2018-Aug-08 01:28N 43°32' E 007°02'0 0.0
2018-Aug-08 00:59N 43°32' E 007°02'2 4.4
2018-Aug-08 00:30N 43°30' E 007°01'914.5
2018-Aug-07 23:54N 43°34' E 007°12'14 9.6
2018-Aug-07 22:28N 43°44' E 007°25'0 0.0
2018-Aug-07 21:52N 43°44' E 007°25'0 0.0
2018-Aug-07 21:28N 43°44' E 007°25'0 0.0
2018-Aug-07 20:59N 43°44' E 007°25'0 0.0
2018-Aug-07 20:29N 43°44' E 007°25'0 0.0
2018-Aug-07 19:42N 43°44' E 007°25'0 0.0
2018-Aug-07 18:13N 43°44' E 007°25'0 0.0
2018-Aug-07 17:55N 43°44' E 007°25'10 3.1
2018-Aug-07 14:36N 43°36' E 007°16'216.2
2018-Aug-07 14:29N 43°35' E 007°14'815.8
2018-Aug-07 14:00N 43°31' E 007°06'3 6.3
2018-Aug-07 13:29N 43°32' E 007°02'0 0.0
2018-Aug-07 12:58N 43°32' E 007°02'0 0.0
2018-Aug-07 12:25N 43°32' E 007°02'0 0.0
2018-Aug-07 11:59N 43°32' E 007°02'0 0.0
2018-Aug-07 11:29N 43°32' E 007°02'0 0.0
2018-Aug-07 10:59N 43°32' E 007°02'0 0.0
2018-Aug-07 10:29N 43°32' E 007°02'0 0.0
2018-Aug-07 10:00N 43°32' E 007°02'0 0.0
2018-Aug-07 09:30N 43°32' E 007°02'0 0.0
2018-Aug-07 09:00N 43°32' E 007°02'0 0.0
2018-Aug-07 08:28N 43°32' E 007°02'0 0.0
2018-Aug-07 07:55N 43°32' E 007°02'0 0.0
2018-Aug-07 07:29N 43°32' E 007°02'0 0.0
2018-Aug-07 06:59N 43°32' E 007°02'0 0.0
2018-Aug-07 06:26N 43°32' E 007°02'0 0.0
2018-Aug-07 06:00N 43°32' E 007°02'0 0.0
2018-Aug-07 05:24N 43°32' E 007°02'0 0.0
2018-Aug-07 05:00N 43°32' E 007°02'0 0.0
2018-Aug-07 04:30N 43°32' E 007°02'0 0.0
2018-Aug-07 03:58N 43°32' E 007°02'0 0.0
2018-Aug-07 03:28N 43°32' E 007°02'0 0.0
2018-Aug-07 02:56N 43°32' E 007°02'0 0.0
2018-Aug-07 02:29N 43°32' E 007°02'0 0.0
2018-Aug-07 01:59N 43°32' E 007°02'0 0.0
2018-Aug-07 01:30N 43°32' E 007°02'0 0.0
2018-Aug-07 01:00N 43°32' E 007°02'0 0.0
2018-Aug-07 00:24N 43°32' E 007°02'0 0.0
2018-Aug-07 00:01N 43°32' E 007°02'0 0.0
2018-Aug-06 23:25N 43°32' E 007°02'0 0.0
2018-Aug-06 22:58N 43°32' E 007°02'0 0.0
2018-Aug-06 22:23N 43°32' E 007°02'0 0.0
2018-Aug-06 21:59N 43°32' E 007°02'0 0.0
2018-Aug-06 21:26N 43°32' E 007°02'0 0.0
2018-Aug-06 21:00N 43°32' E 007°02'0 0.0
2018-Aug-06 20:30N 43°32' E 007°02'0 0.0
2018-Aug-06 20:00N 43°32' E 007°02'0 0.0
2018-Aug-06 19:31N 43°32' E 007°02'0 0.0
2018-Aug-06 18:52N 43°32' E 007°02'0 0.0
2018-Aug-06 18:28N 43°32' E 007°02'0 0.0
2018-Aug-06 17:53N 43°32' E 007°02'0 0.0
2018-Aug-06 17:26N 43°32' E 007°02'0 0.0
2018-Aug-06 16:59N 43°32' E 007°02'0 0.0
2018-Aug-06 16:30N 43°32' E 007°02'0 0.0
2018-Aug-06 16:00N 43°32' E 007°02'0 0.0
2018-Aug-06 15:24N 43°32' E 007°02'0 0.0
2018-Aug-06 14:58N 43°32' E 007°02'0 0.0
2018-Aug-06 14:22N 43°32' E 007°02'0 0.0
2018-Aug-06 13:58N 43°32' E 007°02'0 0.0
2018-Aug-06 13:29N 43°32' E 007°02'0 0.0
2018-Aug-06 12:59N 43°32' E 007°02'0 0.0
2018-Aug-06 12:29N 43°32' E 007°02'0 0.0
2018-Aug-06 12:00N 43°32' E 007°02'0 0.0
2018-Aug-06 11:30N 43°32' E 007°02'0 0.0
2018-Aug-06 11:00N 43°32' E 007°02'0 0.0
2018-Aug-06 10:28N 43°32' E 007°02'0 0.0
2018-Aug-06 09:55N 43°32' E 007°02'0 0.0
2018-Aug-06 09:25N 43°32' E 007°02'0 0.0
2018-Aug-06 08:59N 43°32' E 007°02'0 0.0
2018-Aug-06 08:29N 43°32' E 007°02'0 0.0
2018-Aug-06 07:59N 43°32' E 007°02'0 0.0
2018-Aug-06 07:30N 43°32' E 007°02'0 0.0
2018-Aug-06 06:57N 43°32' E 007°02'0 0.0
2018-Aug-06 06:30N 43°32' E 007°02'0 0.0
2018-Aug-06 05:55N 43°32' E 007°02'0 0.0
2018-Aug-06 05:28N 43°32' E 007°02'0 0.0
2018-Aug-06 04:52N 43°32' E 007°02'0 0.0
2018-Aug-06 04:26N 43°32' E 007°02'0 0.0
2018-Aug-06 03:53N 43°32' E 007°02'0 0.0
2018-Aug-06 03:29N 43°32' E 007°02'0 0.0
2018-Aug-06 03:00N 43°32' E 007°02'0 0.0
2018-Aug-06 02:30N 43°32' E 007°02'0 0.0
2018-Aug-06 02:00N 43°32' E 007°02'0 0.0
2018-Aug-06 01:22N 43°32' E 007°02'0 0.0
2018-Aug-06 00:58N 43°32' E 007°02'0 0.0
2018-Aug-06 00:28N 43°32' E 007°02'0 0.0
2018-Aug-05 23:59N 43°32' E 007°02'0 0.0
2018-Aug-05 23:29N 43°32' E 007°02'0 0.0
2018-Aug-05 22:53N 43°32' E 007°02'0 0.0
2018-Aug-05 22:30N 43°32' E 007°02'0 0.0
2018-Aug-05 21:54N 43°32' E 007°02'0 0.0
2018-Aug-05 21:30N 43°32' E 007°02'0 0.0
2018-Aug-05 20:58N 43°32' E 007°02'0 0.0
2018-Aug-05 20:25N 43°32' E 007°02'0 0.0
2018-Aug-05 19:58N 43°32' E 007°02'0 0.0
2018-Aug-05 19:23N 43°32' E 007°02'0 0.0
2018-Aug-05 18:59N 43°32' E 007°02'0 0.0
2018-Aug-05 18:23N 43°32' E 007°02'0 0.0
2018-Aug-05 17:57N 43°32' E 007°02'0 0.0
2018-Aug-05 17:30N 43°32' E 007°02'0 0.0
2018-Aug-05 16:57N 43°32' E 007°02'0 0.0
2018-Aug-05 16:19N 43°32' E 007°02'0 0.0
2018-Aug-05 15:55N 43°32' E 007°02'0 0.0
2018-Aug-05 15:28N 43°32' E 007°02'0 0.0
2018-Aug-05 14:59N 43°32' E 007°02'0 0.0
2018-Aug-05 13:59N 43°32' E 007°02'0 0.0
2018-Aug-05 13:27N 43°32' E 007°02'0 0.0
2018-Aug-05 13:00N 43°32' E 007°02'0 0.0
2018-Aug-05 12:30N 43°32' E 007°02'0 0.0
2018-Aug-05 11:58N 43°32' E 007°02'0 0.0
2018-Aug-05 11:19N 43°32' E 007°02'0 0.0
2018-Aug-05 10:58N 43°32' E 007°02'0 0.0
2018-Aug-05 10:29N 43°32' E 007°02'0 0.0
2018-Aug-05 09:59N 43°32' E 007°02'0 0.0
2018-Aug-05 09:29N 43°32' E 007°02'0 0.0
2018-Aug-05 09:00N 43°32' E 007°02'0 0.0
2018-Aug-05 08:30N 43°32' E 007°02'0 0.0
2018-Aug-05 07:54N 43°32' E 007°02'0 0.0
2018-Aug-05 07:25N 43°32' E 007°02'0 0.0
2018-Aug-05 06:58N 43°32' E 007°02'0 0.0
2018-Aug-05 06:22N 43°32' E 007°02'0 0.0
2018-Aug-05 05:59N 43°32' E 007°02'0 0.0
2018-Aug-05 05:29N 43°32' E 007°02'0 0.0
2018-Aug-05 04:59N 43°32' E 007°02'0 0.0
2018-Aug-05 04:30N 43°32' E 007°02'0 0.0
2018-Aug-05 03:57N 43°32' E 007°02'0 0.0
2018-Aug-05 03:30N 43°32' E 007°02'0 0.0
2018-Aug-05 02:55N 43°32' E 007°02'  

Dump ship's entire track history